Terminal Aerodrome Forecast
Issued by NWS

Home | Current Version | Previous Version | Text Only | Print | Product List | Glossary On
Versions: 1 2 3 4 5 6 7 8 9 10 11 12 13 14
457
FTUS46 KSGX 091136
TAFCRQ
TAF
KCRQ 091136Z 0912/1012 VRB04KT P6SM SCT012 BKN200
     FM092100 25006KT P6SM BKN015 BKN150
     FM100100 VRB03KT P6SM OVC015
     FM100900 10002KT 4SM BR BKN008=

USA.gov is the U.S. government's official web portal to all federal, state and local government web resources and services.